sensor_id;sensor_type;location;lat;lon;timestamp;P1;durP1;ratioP1;P2;durP2;ratioP2
15218;SDS011;15623;53.986;11.676;2023-05-10T00:00:25;4.97;;;4.57;;
15218;SDS011;15623;53.986;11.676;2023-05-10T00:02:53;4.90;;;4.40;;
15218;SDS011;15623;53.986;11.676;2023-05-10T00:05:21;4.83;;;4.23;;
15218;SDS011;15623;53.986;11.676;2023-05-10T00:07:58;7.30;;;4.77;;
15218;SDS011;15623;53.986;11.676;2023-05-10T00:10:25;5.33;;;4.37;;
15218;SDS011;15623;53.986;11.676;2023-05-10T00:12:59;5.00;;;4.60;;
15218;SDS011;15623;53.986;11.676;2023-05-10T00:15:32;6.97;;;4.40;;
15218;SDS011;15623;53.986;11.676;2023-05-10T00:18:02;9.83;;;4.80;;
15218;SDS011;15623;53.986;11.676;2023-05-10T00:20:31;4.70;;;4.30;;
15218;SDS011;15623;53.986;11.676;2023-05-10T00:23:00;5.87;;;4.63;;
15218;SDS011;15623;53.986;11.676;2023-05-10T00:25:28;8.23;;;4.90;;
15218;SDS011;15623;53.986;11.676;2023-05-10T00:27:55;5.17;;;4.67;;
15218;SDS011;15623;53.986;11.676;2023-05-10T00:30:25;6.03;;;4.80;;
15218;SDS011;15623;53.986;11.676;2023-05-10T00:32:52;7.23;;;4.83;;
15218;SDS011;15623;53.986;11.676;2023-05-10T00:35:20;5.37;;;4.70;;
15218;SDS011;15623;53.986;11.676;2023-05-10T00:37:49;6.97;;;5.20;;
15218;SDS011;15623;53.986;11.676;2023-05-10T00:40:19;5.47;;;4.97;;
15218;SDS011;15623;53.986;11.676;2023-05-10T00:42:51;5.30;;;4.80;;
15218;SDS011;15623;53.986;11.676;2023-05-10T00:45:20;7.67;;;5.10;;
15218;SDS011;15623;53.986;11.676;2023-05-10T00:47:48;5.30;;;4.47;;
15218;SDS011;15623;53.986;11.676;2023-05-10T00:50:21;6.53;;;5.10;;
15218;SDS011;15623;53.986;11.676;2023-05-10T00:52:49;8.47;;;5.00;;
15218;SDS011;15623;53.986;11.676;2023-05-10T00:55:20;6.83;;;4.90;;
15218;SDS011;15623;53.986;11.676;2023-05-10T00:57:48;5.97;;;5.37;;
15218;SDS011;15623;53.986;11.676;2023-05-10T01:00:17;5.73;;;5.20;;
15218;SDS011;15623;53.986;11.676;2023-05-10T01:02:44;5.33;;;4.83;;
15218;SDS011;15623;53.986;11.676;2023-05-10T01:05:12;6.53;;;4.97;;
15218;SDS011;15623;53.986;11.676;2023-05-10T01:07:39;5.33;;;4.83;;
15218;SDS011;15623;53.986;11.676;2023-05-10T01:10:09;5.80;;;5.27;;
15218;SDS011;15623;53.986;11.676;2023-05-10T01:12:38;6.40;;;5.43;;
15218;SDS011;15623;53.986;11.676;2023-05-10T01:15:07;10.40;;;5.20;;
15218;SDS011;15623;53.986;11.676;2023-05-10T01:17:39;7.60;;;5.30;;
15218;SDS011;15623;53.986;11.676;2023-05-10T01:20:09;5.63;;;5.13;;
15218;SDS011;15623;53.986;11.676;2023-05-10T01:22:42;5.77;;;4.90;;
15218;SDS011;15623;53.986;11.676;2023-05-10T01:25:31;6.00;;;5.40;;
15218;SDS011;15623;53.986;11.676;2023-05-10T01:33:44;6.77;;;5.50;;
15218;SDS011;15623;53.986;11.676;2023-05-10T01:38:46;6.00;;;5.50;;
15218;SDS011;15623;53.986;11.676;2023-05-10T01:41:17;8.33;;;5.23;;
15218;SDS011;15623;53.986;11.676;2023-05-10T01:43:55;5.73;;;5.30;;
15218;SDS011;15623;53.986;11.676;2023-05-10T01:46:27;6.50;;;5.37;;
15218;SDS011;15623;53.986;11.676;2023-05-10T01:49:00;5.47;;;5.07;;
15218;SDS011;15623;53.986;11.676;2023-05-10T01:51:33;6.20;;;5.80;;
15218;SDS011;15623;53.986;11.676;2023-05-10T01:54:04;5.87;;;5.40;;
15218;SDS011;15623;53.986;11.676;2023-05-10T01:56:33;6.33;;;5.70;;
15218;SDS011;15623;53.986;11.676;2023-05-10T01:59:11;7.17;;;5.30;;
15218;SDS011;15623;53.986;11.676;2023-05-10T02:01:43;6.10;;;5.40;;
15218;SDS011;15623;53.986;11.676;2023-05-10T02:04:19;7.77;;;5.53;;
15218;SDS011;15623;53.986;11.676;2023-05-10T02:06:49;6.10;;;5.60;;
15218;SDS011;15623;53.986;11.676;2023-05-10T02:09:25;6.23;;;5.63;;
15218;SDS011;15623;53.986;11.676;2023-05-10T02:12:05;6.57;;;5.50;;
15218;SDS011;15623;53.986;11.676;2023-05-10T02:14:39;6.17;;;5.57;;
15218;SDS011;15623;53.986;11.676;2023-05-10T02:17:08;6.10;;;5.60;;
15218;SDS011;15623;53.986;11.676;2023-05-10T02:19:41;6.80;;;6.20;;
15218;SDS011;15623;53.986;11.676;2023-05-10T02:22:20;7.17;;;5.87;;
15218;SDS011;15623;53.986;11.676;2023-05-10T02:24:53;6.20;;;5.70;;
15218;SDS011;15623;53.986;11.676;2023-05-10T02:27:29;6.60;;;6.10;;
15218;SDS011;15623;53.986;11.676;2023-05-10T02:29:57;7.10;;;5.50;;
15218;SDS011;15623;53.986;11.676;2023-05-10T02:32:25;6.60;;;6.10;;
15218;SDS011;15623;53.986;11.676;2023-05-10T02:34:57;6.13;;;5.57;;
15218;SDS011;15623;53.986;11.676;2023-05-10T02:37:25;7.10;;;5.87;;
15218;SDS011;15623;53.986;11.676;2023-05-10T02:39:54;7.53;;;6.10;;
15218;SDS011;15623;53.986;11.676;2023-05-10T02:42:23;6.30;;;5.80;;
15218;SDS011;15623;53.986;11.676;2023-05-10T02:44:53;6.90;;;6.20;;
15218;SDS011;15623;53.986;11.676;2023-05-10T02:47:21;6.50;;;6.00;;
15218;SDS011;15623;53.986;11.676;2023-05-10T02:49:52;6.20;;;5.70;;
15218;SDS011;15623;53.986;11.676;2023-05-10T02:54:58;7.33;;;6.40;;
15218;SDS011;15623;53.986;11.676;2023-05-10T02:57:32;6.47;;;5.93;;
15218;SDS011;15623;53.986;11.676;2023-05-10T03:00:00;7.33;;;6.40;;
15218;SDS011;15623;53.986;11.676;2023-05-10T03:02:28;7.20;;;6.33;;
15218;SDS011;15623;53.986;11.676;2023-05-10T03:05:04;6.63;;;6.03;;
15218;SDS011;15623;53.986;11.676;2023-05-10T03:07:32;8.17;;;6.43;;
15218;SDS011;15623;53.986;11.676;2023-05-10T03:12:40;7.87;;;7.10;;
15218;SDS011;15623;53.986;11.676;2023-05-10T03:15:11;6.87;;;6.33;;
15218;SDS011;15623;53.986;11.676;2023-05-10T03:17:45;6.90;;;6.17;;
15218;SDS011;15623;53.986;11.676;2023-05-10T03:20:16;6.90;;;6.40;;
15218;SDS011;15623;53.986;11.676;2023-05-10T03:25:33;8.50;;;6.20;;
15218;SDS011;15623;53.986;11.676;2023-05-10T03:28:13;7.30;;;6.70;;
15218;SDS011;15623;53.986;11.676;2023-05-10T03:33:15;7.13;;;6.53;;
15218;SDS011;15623;53.986;11.676;2023-05-10T03:35:42;7.20;;;6.60;;
15218;SDS011;15623;53.986;11.676;2023-05-10T03:38:11;7.07;;;6.47;;
15218;SDS011;15623;53.986;11.676;2023-05-10T03:40:39;6.73;;;6.13;;
15218;SDS011;15623;53.986;11.676;2023-05-10T03:43:10;7.20;;;6.60;;
15218;SDS011;15623;53.986;11.676;2023-05-10T03:45:37;7.37;;;6.53;;
15218;SDS011;15623;53.986;11.676;2023-05-10T03:48:05;7.27;;;6.60;;
15218;SDS011;15623;53.986;11.676;2023-05-10T03:50:32;7.03;;;6.23;;
15218;SDS011;15623;53.986;11.676;2023-05-10T03:53:01;7.53;;;6.80;;
15218;SDS011;15623;53.986;11.676;2023-05-10T03:55:28;8.33;;;6.50;;
15218;SDS011;15623;53.986;11.676;2023-05-10T03:58:06;10.00;;;6.53;;
15218;SDS011;15623;53.986;11.676;2023-05-10T04:00:35;7.73;;;6.20;;
15218;SDS011;15623;53.986;11.676;2023-05-10T04:05:42;6.47;;;5.87;;
15218;SDS011;15623;53.986;11.676;2023-05-10T04:08:19;6.37;;;5.80;;
15218;SDS011;15623;53.986;11.676;2023-05-10T04:10:48;6.43;;;5.90;;
15218;SDS011;15623;53.986;11.676;2023-05-10T04:13:16;6.50;;;5.90;;
15218;SDS011;15623;53.986;11.676;2023-05-10T04:18:20;8.43;;;6.40;;
15218;SDS011;15623;53.986;11.676;2023-05-10T04:20:48;7.83;;;5.83;;
15218;SDS011;15623;53.986;11.676;2023-05-10T04:23:23;6.43;;;5.83;;
15218;SDS011;15623;53.986;11.676;2023-05-10T04:26:01;7.73;;;6.47;;
15218;SDS011;15623;53.986;11.676;2023-05-10T04:28:28;6.43;;;5.93;;
15218;SDS011;15623;53.986;11.676;2023-05-10T04:31:00;6.70;;;6.20;;
15218;SDS011;15623;53.986;11.676;2023-05-10T04:33:31;6.03;;;5.37;;
15218;SDS011;15623;53.986;11.676;2023-05-10T04:35:59;6.80;;;6.10;;
15218;SDS011;15623;53.986;11.676;2023-05-10T04:38:35;6.37;;;5.80;;
15218;SDS011;15623;53.986;11.676;2023-05-10T04:41:06;6.03;;;5.37;;
15218;SDS011;15623;53.986;11.676;2023-05-10T04:43:34;6.60;;;6.10;;
15218;SDS011;15623;53.986;11.676;2023-05-10T04:46:02;6.30;;;5.60;;
15218;SDS011;15623;53.986;11.676;2023-05-10T04:48:40;6.03;;;5.60;;
15218;SDS011;15623;53.986;11.676;2023-05-10T04:51:09;6.07;;;5.60;;
15218;SDS011;15623;53.986;11.676;2023-05-10T04:53:39;6.20;;;5.70;;
15218;SDS011;15623;53.986;11.676;2023-05-10T04:58:42;6.27;;;5.67;;
15218;SDS011;15623;53.986;11.676;2023-05-10T05:01:10;6.00;;;5.53;;
15218;SDS011;15623;53.986;11.676;2023-05-10T05:03:44;5.67;;;5.20;;
15218;SDS011;15623;53.986;11.676;2023-05-10T05:06:11;6.83;;;5.63;;
15218;SDS011;15623;53.986;11.676;2023-05-10T05:08:38;6.37;;;5.77;;
15218;SDS011;15623;53.986;11.676;2023-05-10T05:11:06;7.57;;;5.27;;
15218;SDS011;15623;53.986;11.676;2023-05-10T05:13:39;5.80;;;5.30;;
15218;SDS011;15623;53.986;11.676;2023-05-10T05:16:08;6.23;;;5.63;;
15218;SDS011;15623;53.986;11.676;2023-05-10T05:18:37;8.07;;;5.40;;
15218;SDS011;15623;53.986;11.676;2023-05-10T05:21:17;6.10;;;5.60;;
15218;SDS011;15623;53.986;11.676;2023-05-10T05:23:46;5.70;;;5.20;;
15218;SDS011;15623;53.986;11.676;2023-05-10T05:26:17;6.20;;;5.70;;
15218;SDS011;15623;53.986;11.676;2023-05-10T05:29:00;5.87;;;5.27;;
15218;SDS011;15623;53.986;11.676;2023-05-10T05:31:29;5.97;;;5.40;;
15218;SDS011;15623;53.986;11.676;2023-05-10T05:33:58;5.63;;;5.13;;
15218;SDS011;15623;53.986;11.676;2023-05-10T05:36:29;6.53;;;5.40;;
15218;SDS011;15623;53.986;11.676;2023-05-10T05:38:57;5.93;;;5.30;;
15218;SDS011;15623;53.986;11.676;2023-05-10T05:41:25;5.50;;;4.97;;
15218;SDS011;15623;53.986;11.676;2023-05-10T05:43:52;5.43;;;5.07;;
15218;SDS011;15623;53.986;11.676;2023-05-10T05:46:21;6.43;;;4.90;;
15218;SDS011;15623;53.986;11.676;2023-05-10T05:48:50;5.70;;;5.20;;
15218;SDS011;15623;53.986;11.676;2023-05-10T05:51:19;5.63;;;5.00;;
15218;SDS011;15623;53.986;11.676;2023-05-10T05:53:48;8.17;;;5.20;;
15218;SDS011;15623;53.986;11.676;2023-05-10T05:56:22;5.13;;;4.47;;
15218;SDS011;15623;53.986;11.676;2023-05-10T05:58:49;5.00;;;4.60;;
15218;SDS011;15623;53.986;11.676;2023-05-10T06:01:26;5.28;;;4.82;;
15218;SDS011;15623;53.986;11.676;2023-05-10T06:03:54;5.63;;;5.00;;
15218;SDS011;15623;53.986;11.676;2023-05-10T06:06:27;5.55;;;4.82;;
15218;SDS011;15623;53.986;11.676;2023-05-10T06:08:57;5.45;;;5.05;;
15218;SDS011;15623;53.986;11.676;2023-05-10T06:11:31;6.38;;;4.50;;
15218;SDS011;15623;53.986;11.676;2023-05-10T06:13:58;5.00;;;4.50;;
15218;SDS011;15623;53.986;11.676;2023-05-10T06:19:01;4.60;;;4.30;;
15218;SDS011;15623;53.986;11.676;2023-05-10T06:21:36;6.13;;;5.57;;
15218;SDS011;15623;53.986;11.676;2023-05-10T06:24:07;5.15;;;4.63;;
15218;SDS011;15623;53.986;11.676;2023-05-10T06:26:35;5.00;;;4.50;;
15218;SDS011;15623;53.986;11.676;2023-05-10T06:29:02;4.85;;;4.45;;
15218;SDS011;15623;53.986;11.676;2023-05-10T06:31:32;4.55;;;4.15;;
15218;SDS011;15623;53.986;11.676;2023-05-10T06:34:03;4.63;;;4.22;;
15218;SDS011;15623;53.986;11.676;2023-05-10T06:36:34;4.95;;;4.35;;
15218;SDS011;15623;53.986;11.676;2023-05-10T06:39:19;5.13;;;3.92;;
15218;SDS011;15623;53.986;11.676;2023-05-10T06:41:47;5.07;;;4.75;;
15218;SDS011;15623;53.986;11.676;2023-05-10T06:44:16;4.50;;;4.20;;
15218;SDS011;15623;53.986;11.676;2023-05-10T06:46:47;5.43;;;4.35;;
15218;SDS011;15623;53.986;11.676;2023-05-10T06:49:22;4.40;;;4.00;;
15218;SDS011;15623;53.986;11.676;2023-05-10T06:51:54;6.68;;;4.13;;
15218;SDS011;15623;53.986;11.676;2023-05-10T06:54:25;5.28;;;4.38;;
15218;SDS011;15623;53.986;11.676;2023-05-10T06:56:53;4.47;;;4.18;;
15218;SDS011;15623;53.986;11.676;2023-05-10T06:59:21;4.60;;;4.30;;
15218;SDS011;15623;53.986;11.676;2023-05-10T07:01:49;4.50;;;4.15;;
15218;SDS011;15623;53.986;11.676;2023-05-10T07:04:22;4.25;;;3.88;;
15218;SDS011;15623;53.986;11.676;2023-05-10T07:06:50;5.18;;;4.10;;
15218;SDS011;15623;53.986;11.676;2023-05-10T07:09:32;4.10;;;3.80;;
15218;SDS011;15623;53.986;11.676;2023-05-10T07:12:07;4.25;;;3.95;;
15218;SDS011;15623;53.986;11.676;2023-05-10T07:14:42;4.60;;;3.58;;
15218;SDS011;15623;53.986;11.676;2023-05-10T07:17:17;8.75;;;3.90;;
15218;SDS011;15623;53.986;11.676;2023-05-10T07:19:50;4.35;;;3.95;;
15218;SDS011;15623;53.986;11.676;2023-05-10T07:22:18;3.90;;;3.55;;
15218;SDS011;15623;53.986;11.676;2023-05-10T07:24:51;4.07;;;3.72;;
15218;SDS011;15623;53.986;11.676;2023-05-10T07:27:19;4.75;;;3.60;;
15218;SDS011;15623;53.986;11.676;2023-05-10T07:29:47;4.07;;;3.63;;
15218;SDS011;15623;53.986;11.676;2023-05-10T07:32:17;15.05;;;3.65;;
15218;SDS011;15623;53.986;11.676;2023-05-10T07:37:15;4.25;;;3.22;;
15218;SDS011;15623;53.986;11.676;2023-05-10T07:39:51;3.28;;;3.08;;
15218;SDS011;15623;53.986;11.676;2023-05-10T07:42:18;3.95;;;3.50;;
15218;SDS011;15623;53.986;11.676;2023-05-10T07:44:48;3.60;;;3.30;;
15218;SDS011;15623;53.986;11.676;2023-05-10T07:47:16;3.83;;;3.20;;
15218;SDS011;15623;53.986;11.676;2023-05-10T07:49:43;3.88;;;3.38;;
15218;SDS011;15623;53.986;11.676;2023-05-10T07:52:12;3.85;;;3.20;;
15218;SDS011;15623;53.986;11.676;2023-05-10T07:54:40;4.05;;;3.75;;
15218;SDS011;15623;53.986;11.676;2023-05-10T07:57:09;3.22;;;3.03;;
15218;SDS011;15623;53.986;11.676;2023-05-10T07:59:46;3.90;;;3.53;;
15218;SDS011;15623;53.986;11.676;2023-05-10T08:02:17;3.45;;;3.22;;
15218;SDS011;15623;53.986;11.676;2023-05-10T08:04:50;3.35;;;3.10;;
15218;SDS011;15623;53.986;11.676;2023-05-10T08:07:20;3.50;;;3.20;;
15218;SDS011;15623;53.986;11.676;2023-05-10T08:09:50;6.22;;;3.38;;
15218;SDS011;15623;53.986;11.676;2023-05-10T08:12:21;3.33;;;3.13;;
15218;SDS011;15623;53.986;11.676;2023-05-10T08:14:51;6.13;;;3.22;;
15218;SDS011;15623;53.986;11.676;2023-05-10T08:17:20;3.72;;;3.53;;
15218;SDS011;15623;53.986;11.676;2023-05-10T08:19:54;3.30;;;3.10;;
15218;SDS011;15623;53.986;11.676;2023-05-10T08:22:21;5.65;;;3.13;;
15218;SDS011;15623;53.986;11.676;2023-05-10T08:24:49;3.47;;;3.10;;
15218;SDS011;15623;53.986;11.676;2023-05-10T08:27:18;4.25;;;2.80;;
15218;SDS011;15623;53.986;11.676;2023-05-10T08:29:46;3.40;;;3.20;;
15218;SDS011;15623;53.986;11.676;2023-05-10T08:32:15;3.13;;;2.92;;
15218;SDS011;15623;53.986;11.676;2023-05-10T08:34:49;5.30;;;3.22;;
15218;SDS011;15623;53.986;11.676;2023-05-10T08:37:29;3.03;;;2.83;;
15218;SDS011;15623;53.986;11.676;2023-05-10T08:39:58;3.30;;;3.10;;
15218;SDS011;15623;53.986;11.676;2023-05-10T08:42:28;3.60;;;3.30;;
15218;SDS011;15623;53.986;11.676;2023-05-10T08:45:03;3.13;;;2.92;;
15218;SDS011;15623;53.986;11.676;2023-05-10T08:47:32;3.22;;;2.92;;
15218;SDS011;15623;53.986;11.676;2023-05-10T08:52:37;4.28;;;2.70;;
15218;SDS011;15623;53.986;11.676;2023-05-10T08:55:05;5.63;;;2.97;;
15218;SDS011;15623;53.986;11.676;2023-05-10T08:57:44;4.78;;;2.88;;
15218;SDS011;15623;53.986;11.676;2023-05-10T09:00:24;4.05;;;2.88;;
15218;SDS011;15623;53.986;11.676;2023-05-10T09:03:00;3.90;;;2.80;;
15218;SDS011;15623;53.986;11.676;2023-05-10T09:05:27;2.88;;;2.58;;
15218;SDS011;15623;53.986;11.676;2023-05-10T09:07:56;3.95;;;3.10;;
15218;SDS011;15623;53.986;11.676;2023-05-10T09:10:32;3.13;;;2.85;;
15218;SDS011;15623;53.986;11.676;2023-05-10T09:13:02;3.00;;;2.70;;
15218;SDS011;15623;53.986;11.676;2023-05-10T09:15:32;3.08;;;2.60;;
15218;SDS011;15623;53.986;11.676;2023-05-10T09:18:07;3.67;;;2.70;;
15218;SDS011;15623;53.986;11.676;2023-05-10T09:20:37;5.30;;;2.80;;
15218;SDS011;15623;53.986;11.676;2023-05-10T09:23:07;3.20;;;3.00;;
15218;SDS011;15623;53.986;11.676;2023-05-10T09:28:16;2.83;;;2.63;;
15218;SDS011;15623;53.986;11.676;2023-05-10T09:30:58;3.20;;;3.00;;
15218;SDS011;15623;53.986;11.676;2023-05-10T09:33:26;2.75;;;2.55;;
15218;SDS011;15623;53.986;11.676;2023-05-10T09:36:06;3.08;;;2.85;;
15218;SDS011;15623;53.986;11.676;2023-05-10T09:38:44;3.38;;;2.80;;
15218;SDS011;15623;53.986;11.676;2023-05-10T09:41:16;3.13;;;2.85;;
15218;SDS011;15623;53.986;11.676;2023-05-10T09:43:45;2.92;;;2.63;;
15218;SDS011;15623;53.986;11.676;2023-05-10T09:46:19;3.10;;;2.90;;
15218;SDS011;15623;53.986;11.676;2023-05-10T09:48:47;3.33;;;3.00;;
15218;SDS011;15623;53.986;11.676;2023-05-10T09:51:21;3.95;;;2.70;;
15218;SDS011;15623;53.986;11.676;2023-05-10T09:53:48;2.90;;;2.70;;
15218;SDS011;15623;53.986;11.676;2023-05-10T09:59:03;6.43;;;3.20;;
15218;SDS011;15623;53.986;11.676;2023-05-10T10:01:34;4.57;;;2.97;;
15218;SDS011;15623;53.986;11.676;2023-05-10T10:04:04;5.50;;;3.20;;
15218;SDS011;15623;53.986;11.676;2023-05-10T10:06:38;3.10;;;2.90;;
15218;SDS011;15623;53.986;11.676;2023-05-10T10:09:09;3.40;;;2.95;;
15218;SDS011;15623;53.986;11.676;2023-05-10T10:11:43;4.05;;;3.20;;
15218;SDS011;15623;53.986;11.676;2023-05-10T10:14:19;4.22;;;3.00;;
15218;SDS011;15623;53.986;11.676;2023-05-10T10:21:58;3.22;;;3.03;;
15218;SDS011;15623;53.986;11.676;2023-05-10T10:24:27;3.47;;;3.17;;
15218;SDS011;15623;53.986;11.676;2023-05-10T10:26:55;3.10;;;2.90;;
15218;SDS011;15623;53.986;11.676;2023-05-10T10:29:25;5.95;;;3.72;;
15218;SDS011;15623;53.986;11.676;2023-05-10T10:31:59;4.25;;;3.28;;
15218;SDS011;15623;53.986;11.676;2023-05-10T10:34:41;3.85;;;3.45;;
15218;SDS011;15623;53.986;11.676;2023-05-10T10:40:02;3.75;;;3.45;;
15218;SDS011;15623;53.986;11.676;2023-05-10T10:46:08;4.97;;;3.22;;
15218;SDS011;15623;53.986;11.676;2023-05-10T10:48:36;3.28;;;3.08;;
15218;SDS011;15623;53.986;11.676;2023-05-10T10:51:11;3.55;;;3.25;;
15218;SDS011;15623;53.986;11.676;2023-05-10T10:56:21;9.57;;;3.65;;
15218;SDS011;15623;53.986;11.676;2023-05-10T10:58:49;3.45;;;3.15;;
15218;SDS011;15623;53.986;11.676;2023-05-10T11:01:24;3.20;;;3.00;;
15218;SDS011;15623;53.986;11.676;2023-05-10T11:06:54;3.65;;;3.40;;
15218;SDS011;15623;53.986;11.676;2023-05-10T11:09:42;3.63;;;3.42;;
15218;SDS011;15623;53.986;11.676;2023-05-10T11:12:15;3.90;;;3.40;;
15218;SDS011;15623;53.986;11.676;2023-05-10T11:14:49;4.78;;;3.42;;
15218;SDS011;15623;53.986;11.676;2023-05-10T11:17:25;5.07;;;3.22;;
15218;SDS011;15623;53.986;11.676;2023-05-10T11:22:49;4.03;;;3.72;;
15218;SDS011;15623;53.986;11.676;2023-05-10T11:25:31;4.50;;;3.58;;
15218;SDS011;15623;53.986;11.676;2023-05-10T11:28:04;4.45;;;3.58;;
15218;SDS011;15623;53.986;11.676;2023-05-10T11:30:31;5.30;;;3.60;;
15218;SDS011;15623;53.986;11.676;2023-05-10T11:32:59;3.70;;;3.10;;
15218;SDS011;15623;53.986;11.676;2023-05-10T11:35:27;5.00;;;3.40;;
15218;SDS011;15623;53.986;11.676;2023-05-10T11:37:56;4.20;;;3.40;;
15218;SDS011;15623;53.986;11.676;2023-05-10T11:40:24;4.55;;;3.42;;
15218;SDS011;15623;53.986;11.676;2023-05-10T11:42:52;3.40;;;3.10;;
15218;SDS011;15623;53.986;11.676;2023-05-10T11:45:25;3.67;;;3.47;;
15218;SDS011;15623;53.986;11.676;2023-05-10T11:47:55;3.95;;;3.60;;
15218;SDS011;15623;53.986;11.676;2023-05-10T11:50:22;3.55;;;3.25;;
15218;SDS011;15623;53.986;11.676;2023-05-10T11:52:59;3.35;;;3.05;;
15218;SDS011;15623;53.986;11.676;2023-05-10T11:58:15;4.10;;;3.80;;
15218;SDS011;15623;53.986;11.676;2023-05-10T12:03:18;4.20;;;3.85;;
15218;SDS011;15623;53.986;11.676;2023-05-10T12:05:52;4.13;;;3.80;;
15218;SDS011;15623;53.986;11.676;2023-05-10T12:08:20;4.07;;;3.25;;
15218;SDS011;15623;53.986;11.676;2023-05-10T12:10:48;5.10;;;4.00;;
15218;SDS011;15623;53.986;11.676;2023-05-10T12:13:22;3.83;;;3.63;;
15218;SDS011;15623;53.986;11.676;2023-05-10T12:15:58;4.13;;;3.83;;
15218;SDS011;15623;53.986;11.676;2023-05-10T12:18:31;4.53;;;4.22;;
15218;SDS011;15623;53.986;11.676;2023-05-10T12:23:30;4.07;;;3.88;;
15218;SDS011;15623;53.986;11.676;2023-05-10T12:26:01;4.78;;;4.28;;
15218;SDS011;15623;53.986;11.676;2023-05-10T12:28:29;4.57;;;4.18;;
15218;SDS011;15623;53.986;11.676;2023-05-10T12:30:57;4.30;;;3.65;;
15218;SDS011;15623;53.986;11.676;2023-05-10T12:33:26;5.15;;;3.97;;
15218;SDS011;15623;53.986;11.676;2023-05-10T12:35:58;4.60;;;4.30;;
15218;SDS011;15623;53.986;11.676;2023-05-10T12:38:29;5.55;;;3.70;;
15218;SDS011;15623;53.986;11.676;2023-05-10T12:41:03;6.28;;;4.28;;
15218;SDS011;15623;53.986;11.676;2023-05-10T12:43:32;4.50;;;4.10;;
15218;SDS011;15623;53.986;11.676;2023-05-10T12:46:04;5.10;;;4.38;;
15218;SDS011;15623;53.986;11.676;2023-05-10T12:48:31;5.28;;;4.78;;
15218;SDS011;15623;53.986;11.676;2023-05-10T12:51:05;4.57;;;3.97;;
15218;SDS011;15623;53.986;11.676;2023-05-10T12:56:10;4.07;;;3.88;;
15218;SDS011;15623;53.986;11.676;2023-05-10T12:58:41;5.82;;;4.20;;
15218;SDS011;15623;53.986;11.676;2023-05-10T13:01:14;4.65;;;4.25;;
15218;SDS011;15623;53.986;11.676;2023-05-10T13:03:42;4.70;;;4.30;;
15218;SDS011;15623;53.986;11.676;2023-05-10T13:06:22;4.30;;;4.00;;
15218;SDS011;15623;53.986;11.676;2023-05-10T13:08:57;4.60;;;4.15;;
15218;SDS011;15623;53.986;11.676;2023-05-10T13:13:57;4.45;;;4.05;;
15218;SDS011;15623;53.986;11.676;2023-05-10T13:16:26;4.22;;;3.90;;
15218;SDS011;15623;53.986;11.676;2023-05-10T13:18:58;5.00;;;4.63;;
15218;SDS011;15623;53.986;11.676;2023-05-10T13:21:28;4.63;;;4.22;;
15218;SDS011;15623;53.986;11.676;2023-05-10T13:26:27;5.80;;;4.30;;
15218;SDS011;15623;53.986;11.676;2023-05-10T13:29:07;4.60;;;4.30;;
15218;SDS011;15623;53.986;11.676;2023-05-10T13:31:36;5.45;;;4.47;;
15218;SDS011;15623;53.986;11.676;2023-05-10T13:34:06;5.93;;;4.60;;
15218;SDS011;15623;53.986;11.676;2023-05-10T13:36:44;4.97;;;4.57;;
15218;SDS011;15623;53.986;11.676;2023-05-10T13:39:12;6.55;;;4.95;;
15218;SDS011;15623;53.986;11.676;2023-05-10T13:41:42;5.10;;;4.60;;
15218;SDS011;15623;53.986;11.676;2023-05-10T13:44:12;5.80;;;5.30;;
15218;SDS011;15623;53.986;11.676;2023-05-10T13:46:45;6.07;;;5.38;;
15218;SDS011;15623;53.986;11.676;2023-05-10T13:49:15;5.00;;;4.50;;
15218;SDS011;15623;53.986;11.676;2023-05-10T13:51:45;5.70;;;5.30;;
15218;SDS011;15623;53.986;11.676;2023-05-10T13:54:20;5.70;;;5.25;;
15218;SDS011;15623;53.986;11.676;2023-05-10T13:56:49;6.00;;;5.60;;
15218;SDS011;15623;53.986;11.676;2023-05-10T13:59:32;5.68;;;5.18;;
15218;SDS011;15623;53.986;11.676;2023-05-10T14:01:59;5.68;;;5.18;;
15218;SDS011;15623;53.986;11.676;2023-05-10T14:04:32;8.43;;;5.05;;
15218;SDS011;15623;53.986;11.676;2023-05-10T14:07:09;7.97;;;5.45;;
15218;SDS011;15623;53.986;11.676;2023-05-10T14:12:20;6.03;;;5.38;;
15218;SDS011;15623;53.986;11.676;2023-05-10T14:14:48;6.88;;;5.43;;
15218;SDS011;15623;53.986;11.676;2023-05-10T14:17:15;5.75;;;5.35;;
15218;SDS011;15623;53.986;11.676;2023-05-10T14:20:00;6.30;;;5.70;;
15218;SDS011;15623;53.986;11.676;2023-05-10T14:22:31;5.28;;;4.90;;
15218;SDS011;15623;53.986;11.676;2023-05-10T14:24:59;4.85;;;4.55;;
15218;SDS011;15623;53.986;11.676;2023-05-10T14:29:59;5.40;;;5.00;;
15218;SDS011;15623;53.986;11.676;2023-05-10T14:32:43;8.55;;;5.25;;
15218;SDS011;15623;53.986;11.676;2023-05-10T14:35:13;6.20;;;5.03;;
15218;SDS011;15623;53.986;11.676;2023-05-10T14:37:42;5.57;;;5.10;;
15218;SDS011;15623;53.986;11.676;2023-05-10T14:40:10;5.07;;;4.68;;
15218;SDS011;15623;53.986;11.676;2023-05-10T14:42:41;9.48;;;4.70;;
15218;SDS011;15623;53.986;11.676;2023-05-10T14:45:11;5.30;;;4.80;;
15218;SDS011;15623;53.986;11.676;2023-05-10T14:47:44;8.95;;;4.35;;
15218;SDS011;15623;53.986;11.676;2023-05-10T14:50:13;12.10;;;5.40;;
15218;SDS011;15623;53.986;11.676;2023-05-10T14:52:45;9.35;;;4.70;;
15218;SDS011;15623;53.986;11.676;2023-05-10T14:55:14;5.38;;;5.00;;
15218;SDS011;15623;53.986;11.676;2023-05-10T14:57:45;5.47;;;4.97;;
15218;SDS011;15623;53.986;11.676;2023-05-10T15:00:16;5.45;;;4.95;;
15218;SDS011;15623;53.986;11.676;2023-05-10T15:02:45;5.43;;;5.00;;
15218;SDS011;15623;53.986;11.676;2023-05-10T15:05:15;5.55;;;4.68;;
15218;SDS011;15623;53.986;11.676;2023-05-10T15:07:42;5.30;;;4.90;;
15218;SDS011;15623;53.986;11.676;2023-05-10T15:10:15;5.60;;;4.72;;
15218;SDS011;15623;53.986;11.676;2023-05-10T15:12:46;6.00;;;5.43;;
15218;SDS011;15623;53.986;11.676;2023-05-10T15:15:22;6.35;;;5.70;;
15218;SDS011;15623;53.986;11.676;2023-05-10T15:17:58;6.07;;;5.00;;
15218;SDS011;15623;53.986;11.676;2023-05-10T15:20:26;5.55;;;5.03;;
15218;SDS011;15623;53.986;11.676;2023-05-10T15:22:55;5.80;;;5.22;;
15218;SDS011;15623;53.986;11.676;2023-05-10T15:25:28;5.18;;;4.78;;
15218;SDS011;15623;53.986;11.676;2023-05-10T15:27:57;5.53;;;4.97;;
15218;SDS011;15623;53.986;11.676;2023-05-10T15:30:24;5.30;;;4.85;;
15218;SDS011;15623;53.986;11.676;2023-05-10T15:32:52;6.45;;;5.13;;
15218;SDS011;15623;53.986;11.676;2023-05-10T15:35:20;5.47;;;5.05;;
15218;SDS011;15623;53.986;11.676;2023-05-10T15:37:49;6.53;;;5.30;;
15218;SDS011;15623;53.986;11.676;2023-05-10T15:40:16;8.68;;;5.07;;
15218;SDS011;15623;53.986;11.676;2023-05-10T15:42:45;5.65;;;4.95;;
15218;SDS011;15623;53.986;11.676;2023-05-10T15:45:13;7.57;;;5.43;;
15218;SDS011;15623;53.986;11.676;2023-05-10T15:47:42;5.78;;;5.10;;
15218;SDS011;15623;53.986;11.676;2023-05-10T15:50:10;5.78;;;5.30;;
15218;SDS011;15623;53.986;11.676;2023-05-10T15:52:42;5.47;;;5.15;;
15218;SDS011;15623;53.986;11.676;2023-05-10T15:55:18;5.57;;;5.22;;
15218;SDS011;15623;53.986;11.676;2023-05-10T15:57:50;6.28;;;5.43;;
15218;SDS011;15623;53.986;11.676;2023-05-10T16:00:24;5.65;;;5.30;;
15218;SDS011;15623;53.986;11.676;2023-05-10T16:02:54;8.98;;;5.32;;
15218;SDS011;15623;53.986;11.676;2023-05-10T16:05:36;5.93;;;5.47;;
15218;SDS011;15623;53.986;11.676;2023-05-10T16:08:05;7.63;;;5.18;;
15218;SDS011;15623;53.986;11.676;2023-05-10T16:13:12;6.50;;;6.00;;
15218;SDS011;15623;53.986;11.676;2023-05-10T16:15:43;6.20;;;5.70;;
15218;SDS011;15623;53.986;11.676;2023-05-10T16:18:14;6.40;;;5.90;;